Time;durP1;ratioP1;P1;durP2;ratioP2;P2;SDS_P1;SDS_P2;PMS_P1;PMS_P2;Temp;Humidity;BMP_temperature;BMP_pressure;BME280_temperature;BME280_humidity;BME280_pressure;Samples;Min_cycle;Max_cycle;Signal;HPM_P1;HPM_P2
2022/09/02 00:02:06;;;;;;;3.58;0.93;;;;;;;;;;5050297;28;20037;-73
2022/09/02 00:04:33;;;;;;;2.92;1.08;;;;;;;;;;5050474;28;20509;-73
2022/09/02 00:06:59;;;;;;;2.85;1.10;;;;;;;;;;5051207;28;20033;-73
2022/09/02 00:09:25;;;;;;;3.47;1.20;;;;;;;;;;5050236;28;20041;-73
2022/09/02 00:11:53;;;;;;;2.42;1.00;;;;;;;;;;5050691;28;20551;-73
2022/09/02 00:14:21;;;;;;;2.00;0.90;;;;;;;;;;5050398;28;20403;-73
2022/09/02 00:16:50;;;;;;;3.53;1.00;;;;;;;;;;5057936;28;20429;-73
2022/09/02 00:19:20;;;;;;;3.13;1.20;;;;;;;;;;5049899;28;20159;-73
2022/09/02 00:21:46;;;;;;;2.50;1.15;;;;;;;;;;5050929;28;20048;-73
2022/09/02 00:24:13;;;;;;;2.63;1.00;;;;;;;;;;5049950;28;20037;-73
2022/09/02 00:26:39;;;;;;;1.55;0.90;;;;;;;;;;5051863;28;20064;-74
2022/09/02 00:29:06;;;;;;;1.65;0.80;;;;;;;;;;5053891;28;20060;-74
2022/09/02 00:31:32;;;;;;;2.72;1.00;;;;;;;;;;5053697;28;20405;-74
2022/09/02 00:33:58;;;;;;;3.28;0.95;;;;;;;;;;5054191;28;20037;-73
2022/09/02 00:36:24;;;;;;;4.05;0.95;;;;;;;;;;5054001;28;20051;-73
2022/09/02 00:38:50;;;;;;;2.67;1.02;;;;;;;;;;5053801;28;20057;-73
2022/09/02 00:41:19;;;;;;;2.05;0.95;;;;;;;;;;5053621;28;20465;-73
2022/09/02 00:43:47;;;;;;;3.22;1.02;;;;;;;;;;5054205;28;20072;-73
2022/09/02 00:46:16;;;;;;;4.07;0.90;;;;;;;;;;5054131;28;20120;-74
2022/09/02 00:49:01;;;;;;;2.83;1.00;;;;;;;;;;5054005;28;20068;-73
2022/09/02 00:51:31;;;;;;;2.05;0.98;;;;;;;;;;5050093;28;20550;-74
2022/09/02 00:53:57;;;;;;;4.68;1.00;;;;;;;;;;5053925;28;20041;-74
2022/09/02 00:56:27;;;;;;;2.67;0.90;;;;;;;;;;5053501;28;20044;-74
2022/09/02 00:58:55;;;;;;;1.95;1.05;;;;;;;;;;5055307;28;20441;-74
2022/09/02 01:01:21;;;;;;;2.40;1.00;;;;;;;;;;5053346;28;20041;-74
2022/09/02 01:03:48;;;;;;;4.55;0.90;;;;;;;;;;5053449;28;20051;-73
2022/09/02 01:06:14;;;;;;;2.30;1.00;;;;;;;;;;5020762;28;20135;-74
2022/09/02 01:08:43;;;;;;;1.63;0.85;;;;;;;;;;5053129;28;20041;-74
2022/09/02 01:11:09;;;;;;;2.92;0.95;;;;;;;;;;5037064;28;20048;-74
2022/09/02 01:13:38;;;;;;;3.30;1.00;;;;;;;;;;5053478;28;20398;-74
2022/09/02 01:16:16;;;;;;;3.08;1.00;;;;;;;;;;5054839;28;20063;-74
2022/09/02 01:18:45;;;;;;;3.72;1.20;;;;;;;;;;5052967;28;20052;-73
2022/09/02 01:21:12;;;;;;;2.05;0.90;;;;;;;;;;5046532;28;20052;-74
2022/09/02 01:23:38;;;;;;;4.30;1.00;;;;;;;;;;5054352;28;20049;-74
2022/09/02 01:26:06;;;;;;;3.65;1.02;;;;;;;;;;5054282;28;20044;-74
2022/09/02 01:28:32;;;;;;;2.25;0.90;;;;;;;;;;5052820;28;20072;-74
2022/09/02 01:30:58;;;;;;;2.35;1.10;;;;;;;;;;5053514;28;20044;-74
2022/09/02 01:33:24;;;;;;;3.42;0.90;;;;;;;;;;5052696;28;20040;-74
2022/09/02 01:35:51;;;;;;;3.78;1.00;;;;;;;;;;5052986;28;20087;-73
2022/09/02 01:38:18;;;;;;;1.70;0.90;;;;;;;;;;5052522;28;20044;-73
2022/09/02 01:40:44;;;;;;;3.38;1.20;;;;;;;;;;5035468;28;20044;-74
2022/09/02 01:43:12;;;;;;;2.92;1.00;;;;;;;;;;5053171;28;20048;-73
2022/09/02 01:45:39;;;;;;;3.25;1.20;;;;;;;;;;5052193;28;20048;-74
2022/09/02 01:48:05;;;;;;;2.25;1.00;;;;;;;;;;5053548;28;20041;-73
2022/09/02 01:50:32;;;;;;;2.95;1.10;;;;;;;;;;5052403;28;20037;-73
2022/09/02 01:53:00;;;;;;;4.75;1.20;;;;;;;;;;5052615;28;20045;-74
2022/09/02 01:55:26;;;;;;;3.50;1.23;;;;;;;;;;5035430;28;20049;-73
2022/09/02 01:57:52;;;;;;;3.58;0.90;;;;;;;;;;5036500;28;20477;-73
2022/09/02 02:00:19;;;;;;;2.10;1.10;;;;;;;;;;5036388;28;20512;-74
2022/09/02 02:02:45;;;;;;;4.93;1.10;;;;;;;;;;5048462;28;20041;-74
2022/09/02 02:05:12;;;;;;;2.63;1.15;;;;;;;;;;5040398;28;20047;-74
2022/09/02 02:07:40;;;;;;;1.90;1.00;;;;;;;;;;5051752;28;20056;-74
2022/09/02 02:10:09;;;;;;;3.05;1.10;;;;;;;;;;5052247;28;20037;-73
2022/09/02 02:12:35;;;;;;;4.35;1.20;;;;;;;;;;5048792;28;20094;-74
2022/09/02 02:15:07;;;;;;;2.45;1.15;;;;;;;;;;5043694;28;20483;-74
2022/09/02 02:17:33;;;;;;;3.72;1.17;;;;;;;;;;5050172;28;20037;-74
2022/09/02 02:19:59;;;;;;;1.80;1.10;;;;;;;;;;5047543;28;20073;-73
2022/09/02 02:22:26;;;;;;;1.85;1.08;;;;;;;;;;5049701;28;20134;-74
2022/09/02 02:24:52;;;;;;;2.20;1.00;;;;;;;;;;5048055;28;20052;-74
2022/09/02 02:27:19;;;;;;;3.30;1.30;;;;;;;;;;5049217;28;20044;-74
2022/09/02 02:29:45;;;;;;;3.53;1.00;;;;;;;;;;5035257;28;20037;-74
2022/09/02 02:32:11;;;;;;;2.03;1.00;;;;;;;;;;5051885;28;20044;-73
2022/09/02 02:34:38;;;;;;;2.88;1.17;;;;;;;;;;5052106;28;20400;-74
2022/09/02 02:37:05;;;;;;;2.45;1.13;;;;;;;;;;5051677;28;20084;-74
2022/09/02 02:39:31;;;;;;;3.45;1.10;;;;;;;;;;5034603;28;20493;-73
2022/09/02 02:41:57;;;;;;;4.65;1.38;;;;;;;;;;5051440;28;20028;-73
2022/09/02 02:44:23;;;;;;;3.25;1.10;;;;;;;;;;5034889;28;20121;-74
2022/09/02 02:46:50;;;;;;;3.10;1.20;;;;;;;;;;5051506;28;20064;-73
2022/09/02 02:49:16;;;;;;;3.00;1.13;;;;;;;;;;5051576;28;20112;-73
2022/09/02 02:51:42;;;;;;;3.78;1.10;;;;;;;;;;5050251;28;20064;-73
2022/09/02 02:54:09;;;;;;;2.45;1.25;;;;;;;;;;5051897;28;20390;-73
2022/09/02 02:56:35;;;;;;;2.47;1.25;;;;;;;;;;5035049;28;20454;-73
2022/09/02 02:59:02;;;;;;;3.08;1.20;;;;;;;;;;5035215;28;20090;-73
2022/09/02 03:01:29;;;;;;;3.65;1.48;;;;;;;;;;5051903;28;20049;-74
2022/09/02 03:03:55;;;;;;;2.90;1.17;;;;;;;;;;5051373;28;20496;-74
2022/09/02 03:06:22;;;;;;;4.13;1.25;;;;;;;;;;5051438;28;20044;-73
2022/09/02 03:08:48;;;;;;;5.70;1.17;;;;;;;;;;5051681;28;20045;-74
2022/09/02 03:11:14;;;;;;;4.05;1.42;;;;;;;;;;5051183;28;20052;-74
2022/09/02 03:13:41;;;;;;;1.98;1.08;;;;;;;;;;5051279;28;20130;-74
2022/09/02 03:16:07;;;;;;;3.45;1.27;;;;;;;;;;5034730;28;20047;-73
2022/09/02 03:18:33;;;;;;;1.90;1.10;;;;;;;;;;5051515;28;20443;-74
2022/09/02 03:20:59;;;;;;;2.33;1.25;;;;;;;;;;5051184;28;20095;-73
2022/09/02 03:23:26;;;;;;;2.30;1.00;;;;;;;;;;5051440;28;20048;-74
2022/09/02 03:25:53;;;;;;;2.47;1.10;;;;;;;;;;5033945;28;20049;-74
2022/09/02 03:28:19;;;;;;;2.00;1.13;;;;;;;;;;5051402;28;20072;-74
2022/09/02 03:30:46;;;;;;;3.50;1.30;;;;;;;;;;5050524;28;20037;-73
2022/09/02 03:33:12;;;;;;;2.95;1.20;;;;;;;;;;5050407;28;20120;-74
2022/09/02 03:35:39;;;;;;;2.15;1.20;;;;;;;;;;5033915;28;20105;-73
2022/09/02 03:38:06;;;;;;;2.20;1.30;;;;;;;;;;5059890;28;20040;-73
2022/09/02 03:40:32;;;;;;;4.50;1.38;;;;;;;;;;5050897;28;20095;-74
2022/09/02 03:42:58;;;;;;;2.65;1.33;;;;;;;;;;5049523;28;20049;-73
2022/09/02 03:45:24;;;;;;;2.33;1.30;;;;;;;;;;5050800;28;20124;-73
2022/09/02 03:47:52;;;;;;;2.80;1.25;;;;;;;;;;5033993;28;20037;-73
2022/09/02 03:50:19;;;;;;;3.20;1.63;;;;;;;;;;5034225;28;20482;-73
2022/09/02 03:52:45;;;;;;;3.55;1.40;;;;;;;;;;5047628;28;20132;-74
2022/09/02 03:55:11;;;;;;;3.55;1.30;;;;;;;;;;5046917;28;20053;-74
2022/09/02 03:57:37;;;;;;;2.15;1.30;;;;;;;;;;5029200;28;20448;-74
2022/09/02 04:00:05;;;;;;;3.15;1.33;;;;;;;;;;5049458;28;20044;-74
2022/09/02 04:02:31;;;;;;;3.28;1.30;;;;;;;;;;5049928;28;20439;-73
2022/09/02 04:04:57;;;;;;;3.22;1.48;;;;;;;;;;5048296;28;20462;-74
2022/09/02 04:07:23;;;;;;;5.35;1.52;;;;;;;;;;5042411;28;20653;-74
2022/09/02 04:09:49;;;;;;;1.88;1.30;;;;;;;;;;5034709;28;20087;-73
2022/09/02 04:12:16;;;;;;;2.33;1.48;;;;;;;;;;5054337;28;20043;-73
2022/09/02 04:14:42;;;;;;;2.60;1.50;;;;;;;;;;5047509;28;20110;-73
2022/09/02 04:17:08;;;;;;;2.55;1.70;;;;;;;;;;5031701;28;20482;-73
2022/09/02 04:19:36;;;;;;;4.07;1.60;;;;;;;;;;5049947;28;20037;-73
2022/09/02 04:22:02;;;;;;;2.85;1.48;;;;;;;;;;5051228;28;20080;-73
2022/09/02 04:24:28;;;;;;;6.60;1.60;;;;;;;;;;5052189;28;20045;-73
2022/09/02 04:26:54;;;;;;;5.80;1.55;;;;;;;;;;5044693;28;20045;-73
2022/09/02 04:29:20;;;;;;;5.25;1.60;;;;;;;;;;5028967;28;20509;-73
2022/09/02 04:31:46;;;;;;;3.15;1.55;;;;;;;;;;5054298;28;20056;-74
2022/09/02 04:34:12;;;;;;;3.25;1.52;;;;;;;;;;5037098;28;20046;-71
2022/09/02 04:36:39;;;;;;;3.88;1.75;;;;;;;;;;5055628;28;20516;-70
2022/09/02 04:39:07;;;;;;;4.93;1.67;;;;;;;;;;5053117;28;20040;-71
2022/09/02 04:41:34;;;;;;;3.63;1.48;;;;;;;;;;5037974;28;20045;-71
2022/09/02 04:44:01;;;;;;;3.35;1.58;;;;;;;;;;5053245;28;20260;-74
2022/09/02 04:46:27;;;;;;;4.43;1.73;;;;;;;;;;5036008;28;20430;-75
2022/09/02 04:48:54;;;;;;;3.15;1.80;;;;;;;;;;5052243;28;20062;-75
2022/09/02 04:51:22;;;;;;;3.58;1.50;;;;;;;;;;5053067;28;20130;-75
2022/09/02 04:53:49;;;;;;;4.45;1.80;;;;;;;;;;5051130;28;20049;-75
2022/09/02 04:56:17;;;;;;;3.53;1.80;;;;;;;;;;5018451;28;20037;-75
2022/09/02 04:58:43;;;;;;;3.20;1.70;;;;;;;;;;5046547;28;20084;-75
2022/09/02 05:01:13;;;;;;;7.13;1.60;;;;;;;;;;5052723;28;20490;-75
2022/09/02 05:03:39;;;;;;;4.32;1.60;;;;;;;;;;5053905;28;20045;-75
2022/09/02 05:06:06;;;;;;;3.83;1.50;;;;;;;;;;5052032;28;20120;-74
2022/09/02 05:08:35;;;;;;;3.65;1.63;;;;;;;;;;5054656;28;20041;-75
2022/09/02 05:11:04;;;;;;;3.20;1.40;;;;;;;;;;5052246;28;20060;-76
2022/09/02 05:13:30;;;;;;;2.15;1.30;;;;;;;;;;5051922;28;20048;-76
2022/09/02 05:15:56;;;;;;;2.53;1.48;;;;;;;;;;5052224;28;20037;-76
2022/09/02 05:18:22;;;;;;;2.80;1.40;;;;;;;;;;5053327;28;20079;-76
2022/09/02 05:20:48;;;;;;;2.45;1.48;;;;;;;;;;5069452;28;20037;-76
2022/09/02 05:23:14;;;;;;;4.30;1.50;;;;;;;;;;5052156;28;20041;-76
2022/09/02 05:25:41;;;;;;;2.92;1.50;;;;;;;;;;5053209;28;20461;-76
2022/09/02 05:28:07;;;;;;;2.30;1.35;;;;;;;;;;5052322;28;20417;-76
2022/09/02 05:30:34;;;;;;;3.20;1.27;;;;;;;;;;5070279;28;20044;-76
2022/09/02 05:33:00;;;;;;;5.28;1.65;;;;;;;;;;5035966;28;20037;-76
2022/09/02 05:35:27;;;;;;;2.90;1.60;;;;;;;;;;5053088;28;20127;-76
2022/09/02 05:37:53;;;;;;;2.28;1.50;;;;;;;;;;5052532;28;20044;-75
2022/09/02 05:40:19;;;;;;;2.40;1.30;;;;;;;;;;5053380;28;20037;-75
2022/09/02 05:42:45;;;;;;;5.20;1.45;;;;;;;;;;5036854;28;20124;-76
2022/09/02 05:45:11;;;;;;;2.80;1.38;;;;;;;;;;5052595;28;20598;-75
2022/09/02 05:47:37;;;;;;;3.17;1.42;;;;;;;;;;5053031;28;20072;-76
2022/09/02 05:50:03;;;;;;;3.45;1.30;;;;;;;;;;5052692;28;20033;-76
2022/09/02 05:52:30;;;;;;;2.90;1.40;;;;;;;;;;5052662;28;20380;-76
2022/09/02 05:54:56;;;;;;;2.55;1.35;;;;;;;;;;5052227;28;20130;-76
2022/09/02 05:57:22;;;;;;;3.00;1.45;;;;;;;;;;5052765;28;20094;-76
2022/09/02 05:59:54;;;;;;;2.30;1.40;;;;;;;;;;5052487;28;20565;-76
2022/09/02 06:02:21;;;;;;;3.13;1.60;;;;;;;;;;5052428;28;20110;-76
2022/09/02 06:04:48;;;;;;;2.75;1.50;;;;;;;;;;5052184;28;20049;-76
2022/09/02 06:07:14;;;;;;;2.65;1.48;;;;;;;;;;5052437;28;20037;-76
2022/09/02 06:09:43;;;;;;;2.83;1.55;;;;;;;;;;5036019;28;20558;-76
2022/09/02 06:12:10;;;;;;;5.10;1.50;;;;;;;;;;5034067;28;20041;-76
2022/09/02 06:14:36;;;;;;;2.63;1.45;;;;;;;;;;5051802;28;20037;-77
2022/09/02 06:17:03;;;;;;;4.15;1.65;;;;;;;;;;5053105;28;20073;-76
2022/09/02 06:19:31;;;;;;;5.00;1.20;;;;;;;;;;5052013;28;20056;-77
2022/09/02 06:21:58;;;;;;;4.53;1.50;;;;;;;;;;5052382;28;20051;-77
2022/09/02 06:24:24;;;;;;;3.75;1.30;;;;;;;;;;5051685;28;20036;-77
2022/09/02 06:26:52;;;;;;;2.40;1.30;;;;;;;;;;5034479;28;20132;-76
2022/09/02 06:29:18;;;;;;;2.45;1.45;;;;;;;;;;5052045;28;20048;-77
2022/09/02 06:31:46;;;;;;;3.67;1.40;;;;;;;;;;5051137;28;20040;-77
2022/09/02 06:34:14;;;;;;;3.70;1.30;;;;;;;;;;5050267;28;20037;-77
2022/09/02 06:36:42;;;;;;;2.40;1.40;;;;;;;;;;5052290;28;20045;-76
2022/09/02 06:39:10;;;;;;;3.22;1.27;;;;;;;;;;5050559;28;20402;-76
2022/09/02 06:41:37;;;;;;;2.58;1.20;;;;;;;;;;5052020;28;20041;-75
2022/09/02 06:44:04;;;;;;;3.38;1.45;;;;;;;;;;5045970;28;20394;-76
2022/09/02 06:46:32;;;;;;;3.45;1.45;;;;;;;;;;5042461;28;20125;-76
2022/09/02 06:48:58;;;;;;;3.80;1.33;;;;;;;;;;5030749;28;20048;-77
2022/09/02 06:51:29;;;;;;;3.00;1.50;;;;;;;;;;5041543;28;20037;-77
2022/09/02 06:53:55;;;;;;;7.97;1.40;;;;;;;;;;5049908;28;20045;-77
2022/09/02 06:56:22;;;;;;;3.88;1.10;;;;;;;;;;5044202;28;20064;-77
2022/09/02 06:58:48;;;;;;;2.83;1.23;;;;;;;;;;5041563;28;20037;-76
2022/09/02 07:01:18;;;;;;;4.55;1.40;;;;;;;;;;5043428;28;20548;-77
2022/09/02 07:06:36;;;;;;;3.47;1.40;;;;;;;;;;5045901;28;20063;-77
2022/09/02 07:09:03;;;;;;;4.65;1.20;;;;;;;;;;5050773;28;20041;-76
2022/09/02 07:11:29;;;;;;;3.65;1.30;;;;;;;;;;5049503;28;20036;-77
2022/09/02 07:13:55;;;;;;;3.67;1.20;;;;;;;;;;5048188;28;20436;-77
2022/09/02 07:16:21;;;;;;;3.17;1.20;;;;;;;;;;5031096;28;20041;-76
2022/09/02 07:18:47;;;;;;;1.92;1.23;;;;;;;;;;5024043;28;20580;-76
2022/09/02 07:21:13;;;;;;;3.17;1.20;;;;;;;;;;5035358;28;20563;-76
2022/09/02 07:23:39;;;;;;;2.97;1.33;;;;;;;;;;5043336;28;20501;-77
2022/09/02 07:26:11;;;;;;;4.07;1.13;;;;;;;;;;5033495;28;20049;-77
2022/09/02 07:28:37;;;;;;;3.08;1.20;;;;;;;;;;5049148;28;20068;-77
2022/09/02 07:31:07;;;;;;;4.68;1.25;;;;;;;;;;5050097;28;20040;-77
2022/09/02 07:33:35;;;;;;;3.58;1.10;;;;;;;;;;5062305;28;20461;-77
2022/09/02 07:36:01;;;;;;;2.70;1.20;;;;;;;;;;5038320;28;20045;-77
2022/09/02 07:38:28;;;;;;;4.07;1.20;;;;;;;;;;5034046;28;20093;-77
2022/09/02 07:40:54;;;;;;;2.42;1.25;;;;;;;;;;5045196;28;20465;-77
2022/09/02 07:43:21;;;;;;;2.45;1.30;;;;;;;;;;5031747;28;20044;-77
2022/09/02 07:45:48;;;;;;;4.72;1.10;;;;;;;;;;5042711;28;20080;-77
2022/09/02 07:48:15;;;;;;;15.85;1.77;;;;;;;;;;5039331;28;20037;-77
2022/09/02 07:50:41;;;;;;;2.10;1.08;;;;;;;;;;5043022;28;20044;-75
2022/09/02 07:53:07;;;;;;;4.22;1.20;;;;;;;;;;5043111;28;20060;-77
2022/09/02 07:55:34;;;;;;;2.78;1.13;;;;;;;;;;5048768;28;20053;-77
2022/09/02 07:58:00;;;;;;;3.50;1.20;;;;;;;;;;5043315;28;20075;-78
2022/09/02 08:00:29;;;;;;;7.18;1.30;;;;;;;;;;5051011;28;20045;-78
2022/09/02 08:02:55;;;;;;;4.35;1.17;;;;;;;;;;5032905;28;20124;-77
2022/09/02 08:05:22;;;;;;;2.38;1.02;;;;;;;;;;5044942;28;20048;-77
2022/09/02 08:07:48;;;;;;;3.05;1.20;;;;;;;;;;5042279;28;20040;-77
2022/09/02 08:10:15;;;;;;;5.78;1.30;;;;;;;;;;5044643;28;20033;-78
2022/09/02 08:12:42;;;;;;;4.43;1.23;;;;;;;;;;5033598;28;20037;-73
2022/09/02 08:15:09;;;;;;;3.33;1.40;;;;;;;;;;5049248;28;20052;-74
2022/09/02 08:17:35;;;;;;;3.25;1.20;;;;;;;;;;5045338;28;20684;-75
2022/09/02 08:20:01;;;;;;;2.13;1.17;;;;;;;;;;5040887;28;20053;-75
2022/09/02 08:22:33;;;;;;;5.05;1.30;;;;;;;;;;5045968;28;20525;-79
2022/09/02 08:24:59;;;;;;;2.10;1.20;;;;;;;;;;5050092;28;20048;-77
2022/09/02 08:27:26;;;;;;;3.75;1.27;;;;;;;;;;5046293;28;20045;-77
2022/09/02 08:29:52;;;;;;;6.47;1.10;;;;;;;;;;5013919;28;20068;-77
2022/09/02 08:32:18;;;;;;;2.70;1.20;;;;;;;;;;5033187;28;20378;-77
2022/09/02 08:34:45;;;;;;;3.45;1.50;;;;;;;;;;5030730;28;20079;-77
2022/09/02 08:37:11;;;;;;;4.80;1.13;;;;;;;;;;5037551;28;20042;-80
2022/09/02 08:39:37;;;;;;;3.72;1.20;;;;;;;;;;5044051;28;20098;-76
2022/09/02 08:42:03;;;;;;;2.63;1.10;;;;;;;;;;5034711;28;20064;-77
2022/09/02 08:44:29;;;;;;;6.65;1.30;;;;;;;;;;5041344;28;20048;-78
2022/09/02 08:46:58;;;;;;;2.92;1.20;;;;;;;;;;5037415;28;20094;-77
2022/09/02 08:49:33;;;;;;;4.95;1.10;;;;;;;;;;5037247;28;20121;-78
2022/09/02 08:52:01;;;;;;;7.60;1.20;;;;;;;;;;5040870;28;20041;-78
2022/09/02 08:54:39;;;;;;;10.73;1.45;;;;;;;;;;5043625;28;20478;-77
2022/09/02 08:57:06;;;;;;;3.78;1.00;;;;;;;;;;5043529;28;20103;-77
2022/09/02 08:59:32;;;;;;;4.35;1.33;;;;;;;;;;5041419;28;20433;-78
2022/09/02 09:01:58;;;;;;;3.28;1.40;;;;;;;;;;5038693;28;20045;-78
2022/09/02 09:04:31;;;;;;;4.80;1.17;;;;;;;;;;5051891;28;20037;-77
2022/09/02 09:07:07;;;;;;;3.55;1.10;;;;;;;;;;5043483;28;20041;-78
2022/09/02 09:09:33;;;;;;;9.15;2.08;;;;;;;;;;5043571;28;20045;-77
2022/09/02 09:12:09;;;;;;;5.28;1.42;;;;;;;;;;5048203;28;20033;-77
2022/09/02 09:14:54;;;;;;;6.28;1.20;;;;;;;;;;5044564;28;20042;-77
2022/09/02 09:17:28;;;;;;;4.38;1.05;;;;;;;;;;5051387;28;20509;-78
2022/09/02 09:19:58;;;;;;;2.78;0.90;;;;;;;;;;5043402;28;20044;-78
2022/09/02 09:22:38;;;;;;;5.28;1.23;;;;;;;;;;5045079;28;20040;-77
2022/09/02 09:25:15;;;;;;;4.10;1.10;;;;;;;;;;5048085;28;20041;-78
2022/09/02 09:27:41;;;;;;;5.03;1.00;;;;;;;;;;5051971;28;20393;-77
2022/09/02 09:30:08;;;;;;;2.35;1.10;;;;;;;;;;5048254;28;20044;-78
2022/09/02 09:32:37;;;;;;;5.53;1.38;;;;;;;;;;5032959;28;20076;-78
2022/09/02 09:35:11;;;;;;;2.92;0.90;;;;;;;;;;5053022;28;20056;-78
2022/09/02 09:37:37;;;;;;;3.85;0.90;;;;;;;;;;5065363;28;20112;-78
2022/09/02 09:42:49;;;;;;;2.72;0.90;;;;;;;;;;5047663;28;20474;-78
2022/09/02 09:45:19;;;;;;;6.68;1.27;;;;;;;;;;5034741;28;20045;-78
2022/09/02 09:47:46;;;;;;;3.22;0.90;;;;;;;;;;5038845;28;20044;-77
2022/09/02 09:50:15;;;;;;;3.88;1.00;;;;;;;;;;5047933;28;20033;-76
2022/09/02 09:52:41;;;;;;;4.35;0.93;;;;;;;;;;5033202;28;20509;-77
2022/09/02 09:55:16;;;;;;;5.22;1.00;;;;;;;;;;5056935;28;20870;-76
2022/09/02 09:57:43;;;;;;;2.67;0.95;;;;;;;;;;5048358;28;20041;-76
2022/09/02 10:00:13;;;;;;;4.45;1.10;;;;;;;;;;5049909;28;20044;-76
2022/09/02 10:02:46;;;;;;;4.55;1.20;;;;;;;;;;5049953;28;20041;-76
2022/09/02 10:05:27;;;;;;;8.95;1.05;;;;;;;;;;5043224;28;20041;-77
2022/09/02 10:07:59;;;;;;;2.33;1.02;;;;;;;;;;5047818;28;20037;-76
2022/09/02 10:10:26;;;;;;;4.03;0.90;;;;;;;;;;5051839;28;20473;-77
2022/09/02 10:12:54;;;;;;;3.28;0.90;;;;;;;;;;5049308;28;20036;-76
2022/09/02 10:15:26;;;;;;;7.88;1.00;;;;;;;;;;5048789;28;20172;-77
2022/09/02 10:17:59;;;;;;;1.63;0.88;;;;;;;;;;5047028;28;20048;-77
2022/09/02 10:20:25;;;;;;;4.07;0.80;;;;;;;;;;5040540;28;20040;-77
2022/09/02 10:22:57;;;;;;;2.60;0.82;;;;;;;;;;5044465;28;20528;-76
2022/09/02 10:25:23;;;;;;;3.70;1.00;;;;;;;;;;5045196;28;20033;-74
2022/09/02 10:28:02;;;;;;;8.23;1.15;;;;;;;;;;5046394;28;20481;-73
2022/09/02 10:30:30;;;;;;;4.95;1.20;;;;;;;;;;5050024;28;20087;-79
2022/09/02 10:33:06;;;;;;;3.88;0.80;;;;;;;;;;5052338;28;20072;-80
2022/09/02 10:36:07;;;;;;;2.80;0.85;;;;;;;;;;5056239;28;20045;-80
2022/09/02 10:38:36;;;;;;;3.88;1.00;;;;;;;;;;5019112;28;20512;-79
2022/09/02 10:41:13;;;;;;;2.05;1.02;;;;;;;;;;5044874;28;20063;-76
2022/09/02 10:43:39;;;;;;;3.80;1.00;;;;;;;;;;5051616;28;20075;-76
2022/09/02 10:46:09;;;;;;;5.40;0.85;;;;;;;;;;5052121;28;20489;-75
2022/09/02 10:48:47;;;;;;;2.38;0.70;;;;;;;;;;5051564;28;20037;-75
2022/09/02 10:51:27;;;;;;;2.75;0.80;;;;;;;;;;5039101;28;20048;-76
2022/09/02 10:53:58;;;;;;;6.05;0.88;;;;;;;;;;5035200;28;20045;-75
2022/09/02 10:56:39;;;;;;;3.58;0.80;;;;;;;;;;5051488;28;20055;-75
2022/09/02 10:59:05;;;;;;;4.00;0.88;;;;;;;;;;5052234;28;20508;-75
2022/09/02 11:01:35;;;;;;;3.28;0.82;;;;;;;;;;5051264;28;20048;-75
2022/09/02 11:04:05;;;;;;;2.25;0.90;;;;;;;;;;5051644;28;20052;-75
2022/09/02 11:06:35;;;;;;;6.28;1.17;;;;;;;;;;5051087;28;20083;-75
2022/09/02 11:09:02;;;;;;;2.03;0.90;;;;;;;;;;5051641;28;20053;-76
2022/09/02 11:11:40;;;;;;;2.40;0.85;;;;;;;;;;5050554;28;20041;-75
2022/09/02 11:14:26;;;;;;;1.90;0.70;;;;;;;;;;5051780;28;20044;-76
2022/09/02 11:16:55;;;;;;;4.57;0.90;;;;;;;;;;5068391;28;20558;-75
2022/09/02 11:19:40;;;;;;;1.70;0.90;;;;;;;;;;5051235;28;20052;-75
2022/09/02 11:22:26;;;;;;;2.58;0.80;;;;;;;;;;5051184;28;20040;-75
2022/09/02 11:24:59;;;;;;;3.17;1.00;;;;;;;;;;5035013;28;20527;-75
2022/09/02 11:27:32;;;;;;;2.80;0.90;;;;;;;;;;5050864;28;20049;-75
2022/09/02 11:29:58;;;;;;;2.08;0.93;;;;;;;;;;5034812;28;20485;-75
2022/09/02 11:32:40;;;;;;;4.90;1.42;;;;;;;;;;5050844;28;20098;-75
2022/09/02 11:35:09;;;;;;;3.45;1.30;;;;;;;;;;5034686;28;20055;-75
2022/09/02 11:37:54;;;;;;;2.40;1.13;;;;;;;;;;5050709;28;20045;-75
2022/09/02 11:40:25;;;;;;;5.28;1.00;;;;;;;;;;5050957;28;20049;-76
2022/09/02 11:43:06;;;;;;;2.25;1.00;;;;;;;;;;5051460;28;20136;-75
2022/09/02 11:45:38;;;;;;;2.75;0.90;;;;;;;;;;5050922;28;20124;-75
2022/09/02 11:48:33;;;;;;;3.72;0.93;;;;;;;;;;5051467;28;20405;-75
2022/09/02 11:51:19;;;;;;;6.13;1.95;;;;;;;;;;5033706;28;20553;-75
2022/09/02 11:53:46;;;;;;;2.10;1.20;;;;;;;;;;5033764;28;20057;-75
2022/09/02 11:56:18;;;;;;;5.82;1.20;;;;;;;;;;5037259;28;20481;-75
2022/09/02 11:58:46;;;;;;;2.03;0.85;;;;;;;;;;5033941;28;20041;-75
2022/09/02 12:01:15;;;;;;;5.68;1.33;;;;;;;;;;5051309;28;20481;-75
2022/09/02 12:03:56;;;;;;;4.45;1.10;;;;;;;;;;5050879;28;20132;-75
2022/09/02 12:06:22;;;;;;;2.00;1.00;;;;;;;;;;5050949;28;20480;-75
2022/09/02 12:08:49;;;;;;;2.88;1.00;;;;;;;;;;5033818;28;20041;-75
2022/09/02 12:11:38;;;;;;;3.15;1.13;;;;;;;;;;5050632;28;20044;-75
2022/09/02 12:14:10;;;;;;;2.28;0.90;;;;;;;;;;5050705;28;20055;-76
2022/09/02 12:16:41;;;;;;;3.75;1.20;;;;;;;;;;5050818;28;20056;-75
2022/09/02 12:19:10;;;;;;;6.10;1.30;;;;;;;;;;5050643;28;20123;-75
2022/09/02 12:21:56;;;;;;;3.70;1.10;;;;;;;;;;5050620;28;20041;-76
2022/09/02 12:24:24;;;;;;;3.67;1.10;;;;;;;;;;5054060;28;20076;-75
2022/09/02 12:26:50;;;;;;;2.50;1.33;;;;;;;;;;5054404;28;20045;-75
2022/09/02 12:29:19;;;;;;;7.13;1.15;;;;;;;;;;5054930;28;20124;-75
2022/09/02 12:31:49;;;;;;;3.90;1.02;;;;;;;;;;5054050;28;20032;-76
2022/09/02 12:34:35;;;;;;;2.42;1.30;;;;;;;;;;5054797;28;20044;-76
2022/09/02 12:37:02;;;;;;;3.67;1.10;;;;;;;;;;5044203;28;20114;-76
2022/09/02 12:39:28;;;;;;;2.83;1.10;;;;;;;;;;5054368;28;20066;-76
2022/09/02 12:41:54;;;;;;;5.03;1.30;;;;;;;;;;5054167;28;20041;-75
2022/09/02 12:44:20;;;;;;;2.63;1.05;;;;;;;;;;5054535;28;20151;-76
2022/09/02 12:46:59;;;;;;;2.75;1.00;;;;;;;;;;5054514;28;20485;-75
2022/09/02 12:49:28;;;;;;;3.65;1.00;;;;;;;;;;5054801;28;20040;-75
2022/09/02 12:52:00;;;;;;;4.82;1.13;;;;;;;;;;5037150;28;20045;-76
2022/09/02 12:54:41;;;;;;;2.88;1.38;;;;;;;;;;5053984;28;20041;-75
2022/09/02 12:57:07;;;;;;;3.30;1.00;;;;;;;;;;5037863;28;20037;-75
2022/09/02 12:59:35;;;;;;;3.17;1.10;;;;;;;;;;5053590;28;20044;-75
2022/09/02 13:02:20;;;;;;;4.97;1.20;;;;;;;;;;5037480;28;20122;-76
2022/09/02 13:04:54;;;;;;;2.00;1.00;;;;;;;;;;5040260;28;20036;-75
2022/09/02 13:07:39;;;;;;;1.63;0.93;;;;;;;;;;5054302;28;20283;-75
2022/09/02 13:10:05;;;;;;;3.50;1.73;;;;;;;;;;5042363;28;20037;-76
2022/09/02 13:12:54;;;;;;;3.65;1.25;;;;;;;;;;5053688;28;20367;-76
2022/09/02 13:15:35;;;;;;;3.40;1.20;;;;;;;;;;5053505;28;20063;-75
2022/09/02 13:18:17;;;;;;;1.77;1.10;;;;;;;;;;5054263;28;20037;-75
2022/09/02 13:20:43;;;;;;;5.13;1.30;;;;;;;;;;5053673;28;20488;-75
2022/09/02 13:23:10;;;;;;;2.33;1.27;;;;;;;;;;5053582;28;20048;-75
2022/09/02 13:25:46;;;;;;;2.95;1.50;;;;;;;;;;5053438;28;20152;-75
2022/09/02 13:28:32;;;;;;;2.85;1.10;;;;;;;;;;5037228;28;20485;-75
2022/09/02 13:30:58;;;;;;;2.55;1.30;;;;;;;;;;5041728;28;20048;-76
2022/09/02 13:33:26;;;;;;;2.38;1.33;;;;;;;;;;5053327;28;20065;-75
2022/09/02 13:35:54;;;;;;;3.20;1.23;;;;;;;;;;5052130;28;20049;-75
2022/09/02 13:38:23;;;;;;;2.33;1.25;;;;;;;;;;5037002;28;20674;-76
2022/09/02 13:40:49;;;;;;;3.50;1.20;;;;;;;;;;5036219;28;20041;-76
2022/09/02 13:43:17;;;;;;;4.88;1.35;;;;;;;;;;5054519;28;20116;-75
2022/09/02 13:45:44;;;;;;;4.57;1.30;;;;;;;;;;5052704;28;20048;-76
2022/09/02 13:48:13;;;;;;;2.58;1.20;;;;;;;;;;5037156;28;20037;-75
2022/09/02 13:50:43;;;;;;;4.53;1.20;;;;;;;;;;5036345;28;20041;-76
2022/09/02 13:53:11;;;;;;;3.85;1.27;;;;;;;;;;5053095;28;20045;-76
2022/09/02 13:55:38;;;;;;;1.90;1.10;;;;;;;;;;5053157;28;20555;-76
2022/09/02 13:58:06;;;;;;;2.97;1.30;;;;;;;;;;5053044;28;20504;-76
2022/09/02 14:00:33;;;;;;;2.13;1.23;;;;;;;;;;5054403;28;20032;-75
2022/09/02 14:03:04;;;;;;;2.65;1.27;;;;;;;;;;5052488;28;20033;-75
2022/09/02 14:05:32;;;;;;;4.22;1.33;;;;;;;;;;5052975;28;20396;-76
2022/09/02 14:07:58;;;;;;;3.42;1.10;;;;;;;;;;5052541;28;20040;-76
2022/09/02 14:10:26;;;;;;;3.22;1.38;;;;;;;;;;5020141;28;20077;-75
2022/09/02 14:12:54;;;;;;;2.67;1.40;;;;;;;;;;5035780;28;20060;-76
2022/09/02 14:15:30;;;;;;;4.57;1.30;;;;;;;;;;5052752;28;20083;-75
2022/09/02 14:18:09;;;;;;;4.50;1.63;;;;;;;;;;5035754;28;20111;-75
2022/09/02 14:20:37;;;;;;;5.63;1.40;;;;;;;;;;5052667;28;20037;-76
2022/09/02 14:23:03;;;;;;;3.85;1.30;;;;;;;;;;5052499;28;20588;-76
2022/09/02 14:25:33;;;;;;;3.75;1.40;;;;;;;;;;5052468;28;20044;-76
2022/09/02 14:27:59;;;;;;;3.47;1.30;;;;;;;;;;5051969;28;20037;-76
2022/09/02 14:30:33;;;;;;;2.90;1.30;;;;;;;;;;5052238;28;20041;-76
2022/09/02 14:33:15;;;;;;;3.05;1.50;;;;;;;;;;5052091;28;20497;-76
2022/09/02 14:35:42;;;;;;;4.78;1.38;;;;;;;;;;5052277;28;20103;-76
2022/09/02 14:38:21;;;;;;;2.63;1.23;;;;;;;;;;5053296;28;20120;-76
2022/09/02 14:40:47;;;;;;;4.82;1.83;;;;;;;;;;5051716;28;20508;-76
2022/09/02 14:43:15;;;;;;;4.32;1.38;;;;;;;;;;5035503;28;20037;-76
2022/09/02 14:45:44;;;;;;;5.07;1.35;;;;;;;;;;5051743;28;20049;-76
2022/09/02 14:48:18;;;;;;;3.20;1.25;;;;;;;;;;5035425;28;20076;-76
2022/09/02 14:50:44;;;;;;;2.38;1.20;;;;;;;;;;5052157;28;20033;-76
2022/09/02 14:53:10;;;;;;;4.78;1.40;;;;;;;;;;5051678;28;20160;-76
2022/09/02 14:55:45;;;;;;;3.20;1.30;;;;;;;;;;5035193;28;20052;-76
2022/09/02 14:58:11;;;;;;;3.10;1.40;;;;;;;;;;5034884;28;20076;-76
2022/09/02 15:00:38;;;;;;;2.90;1.20;;;;;;;;;;5051781;28;20048;-76